Time;durP1;ratioP1;P1;durP2;ratioP2;P2;SDS_P1;SDS_P2;PMS_P1;PMS_P2;Temp;Humidity;BMP_temperature;BMP_pressure;BME280_temperature;BME280_humidity;BME280_pressure;Samples;Min_cycle;Max_cycle;Signal;HPM_P1;HPM_P2
2023/04/16 00:01:19;;;;;;;9.43;6.50;;;;;;;;;;5055310;28;20449;-76
2023/04/16 00:03:46;;;;;;;8.97;6.03;;;;;;;;;;5051450;28;20871;-76
2023/04/16 00:06:13;;;;;;;8.10;5.30;;;;;;;;;;5034115;28;20447;-79
2023/04/16 00:08:42;;;;;;;8.27;6.43;;;;;;;;;;5035171;28;20466;-77
2023/04/16 00:11:09;;;;;;;10.63;7.67;;;;;;;;;;5035078;28;20569;-75
2023/04/16 00:13:37;;;;;;;10.03;7.00;;;7.00;99.90;;;;;;5035160;28;20447;-76
2023/04/16 00:16:04;;;;;;;9.33;6.40;;;;;;;;;;5035198;28;20447;-76
2023/04/16 00:18:31;;;;;;;8.63;6.73;;;;;;;;;;5035103;28;20444;-76
2023/04/16 00:20:59;;;;;;;11.77;8.50;;;;;;;;;;5033927;28;20447;-78
2023/04/16 00:23:26;;;;;;;9.93;6.63;;;;;;;;;;5034979;28;20451;-76
2023/04/16 00:25:56;;;;;;;8.10;6.20;;;;;;;;;;5034848;28;20444;-76
2023/04/16 00:28:23;;;;;;;6.80;5.07;;;;;;;;;;5034721;28;20491;-77
2023/04/16 00:30:51;;;;;;;5.20;3.90;;;7.00;99.90;;;;;;5034791;28;20495;-76
2023/04/16 00:33:18;;;;;;;10.80;6.77;;;;;;;;;;5034830;28;20448;-76
2023/04/16 00:35:46;;;;;;;10.10;7.77;;;7.00;99.90;;;;;;5033492;28;20935;-76
2023/04/16 00:38:13;;;;;;;6.83;4.50;;;;;;;;;;5034725;28;20494;-76
2023/04/16 00:40:40;;;;;;;9.50;7.20;;;;;;;;;;5034615;28;20455;-77
2023/04/16 00:43:07;;;;;;;9.37;7.37;;;;;;;;;;5034625;28;20447;-77
2023/04/16 00:45:34;;;;;;;9.30;6.77;;;;;;;;;;5034627;28;20453;-77
2023/04/16 00:48:02;;;;;;;8.13;6.87;;;6.90;99.90;;;;;;5034214;28;20462;-76
2023/04/16 00:50:30;;;;;;;9.10;6.67;;;;;;;;;;5033317;28;20491;-76
2023/04/16 00:52:57;;;;;;;9.50;6.80;;;;;;;;;;5034494;28;20455;-77
2023/04/16 00:55:24;;;;;;;8.30;7.13;;;;;;;;;;5034331;28;20451;-77
2023/04/16 00:57:51;;;;;;;7.30;6.43;;;;;;;;;;5034323;28;20444;-77
2023/04/16 01:00:19;;;;;;;8.70;6.30;;;;;;;;;;5034193;28;20461;-77
2023/04/16 01:02:46;;;;;;;7.57;6.00;;;;;;;;;;5034268;28;20455;-77
2023/04/16 01:05:14;;;;;;;10.33;7.77;;;7.10;99.90;;;;;;5032505;28;20451;-77
2023/04/16 01:07:41;;;;;;;8.17;5.63;;;;;;;;;;5034032;28;20451;-77
2023/04/16 01:10:08;;;;;;;7.67;5.90;;;;;;;;;;5033916;28;20848;-77
2023/04/16 01:12:36;;;;;;;9.00;6.63;;;;;;;;;;5034152;28;20823;-77
2023/04/16 01:15:03;;;;;;;13.70;7.30;;;;;;;;;;5034024;28;20829;-77
2023/04/16 01:17:30;;;;;;;9.37;6.20;;;;;;;;;;5033724;28;20439;-77
2023/04/16 01:19:59;;;;;;;8.73;6.23;;;7.10;99.90;;;;;;5032784;28;20942;-77
2023/04/16 01:22:27;;;;;;;8.10;6.40;;;7.00;99.90;;;;;;5033874;28;20448;-77
2023/04/16 01:24:54;;;;;;;7.93;6.30;;;;;;;;;;5033894;28;20451;-77
2023/04/16 01:27:21;;;;;;;5.10;4.43;;;;;;;;;;5033501;28;20550;-77
2023/04/16 01:29:48;;;;;;;7.70;6.40;;;;;;;;;;5033704;28;20486;-77
2023/04/16 01:32:15;;;;;;;8.13;5.63;;;;;;;;;;5033737;28;20834;-78
2023/04/16 01:34:42;;;;;;;6.90;6.17;;;;;;;;;;5032447;28;20845;-76
2023/04/16 01:37:09;;;;;;;6.60;4.80;;;;;;;;;;5033062;28;20829;-77
2023/04/16 01:39:38;;;;;;;7.90;6.13;;;7.00;99.90;;;;;;5033621;28;20474;-78
2023/04/16 01:42:05;;;;;;;8.03;5.67;;;;;;;;;;5033721;28;20462;-77
2023/04/16 01:44:32;;;;;;;8.07;6.30;;;;;;;;;;5033504;28;20456;-78
2023/04/16 01:46:59;;;;;;;7.83;5.67;;;;;;;;;;5033508;28;20471;-78
2023/04/16 01:49:26;;;;;;;5.57;4.70;;;;;;;;;;5032235;28;20450;-77
2023/04/16 01:51:53;;;;;;;8.10;6.07;;;;;;;;;;5033432;28;20452;-76
2023/04/16 01:54:20;;;;;;;5.47;4.17;;;;;;;;;;5033368;28;20458;-76
2023/04/16 01:56:48;;;;;;;6.60;5.30;;;7.00;99.90;;;;;;5033299;28;20786;-77
2023/04/16 01:59:15;;;;;;;7.07;5.60;;;;;;;;;;5036291;28;20462;-77
2023/04/16 02:01:42;;;;;;;7.93;5.53;;;;;;;;;;5042419;28;20455;-75
2023/04/16 02:04:10;;;;;;;5.47;4.63;;;;;;;;;;5033582;28;20443;-76
2023/04/16 02:06:37;;;;;;;7.73;5.30;;;;;;;;;;5032690;28;20451;-77
2023/04/16 02:09:04;;;;;;;5.93;5.03;;;;;;;;;;5033100;28;20448;-77
2023/04/16 02:11:31;;;;;;;5.57;4.47;;;;;;;;;;5033059;28;20517;-79
2023/04/16 02:13:59;;;;;;;7.93;5.37;;;7.00;99.90;;;;;;5032989;28;20960;-78
2023/04/16 02:16:26;;;;;;;5.87;4.20;;;;;;;;;;5033170;28;20447;-75
2023/04/16 02:18:53;;;;;;;2.30;2.00;;;;;;;;;;5032912;28;20497;-77
2023/04/16 02:21:20;;;;;;;6.47;4.90;;;;;;;;;;5031803;28;20447;-76
2023/04/16 02:23:50;;;;;;;7.93;5.30;;;;;;;;;;5032826;28;20934;-77
2023/04/16 02:26:17;;;;;;;5.30;3.90;;;;;;;;;;5032785;28;20539;-77
2023/04/16 02:28:44;;;;;;;7.43;4.70;;;;;;;;;;5032704;28;20886;-79
2023/04/16 02:31:13;;;;;;;7.50;5.10;;;7.00;99.90;;;;;;5032679;28;20867;-77
2023/04/16 02:33:40;;;;;;;6.23;4.60;;;;;;;;;;5032809;28;20455;-77
2023/04/16 02:36:10;;;;;;;8.17;5.43;;;;;;;;;;5031724;28;20451;-77
2023/04/16 02:38:37;;;;;;;7.20;5.07;;;;;;;;;;5032782;28;21044;-77
2023/04/16 02:41:04;;;;;;;5.77;4.10;;;;;;;;;;5032714;28;20941;-77
2023/04/16 02:43:31;;;;;;;7.60;4.80;;;;;;;;;;5032753;28;20451;-76
2023/04/16 02:45:59;;;;;;;6.63;4.67;;;;;;;;;;5032750;28;20474;-76
2023/04/16 02:48:27;;;;;;;7.70;5.50;;;6.90;99.90;;;;;;5032890;28;20487;-77
2023/04/16 02:50:54;;;;;;;6.70;4.40;;;;;;;;;;5034647;28;20495;-77
2023/04/16 02:53:21;;;;;;;7.97;5.07;;;;;;;;;;5036767;28;20458;-77
2023/04/16 02:55:51;;;;;;;6.00;4.90;;;;;;;;;;5036541;28;20459;-80
2023/04/16 02:58:18;;;;;;;5.80;4.13;;;;;;;;;;5036480;28;20497;-76
2023/04/16 03:00:45;;;;;;;5.87;4.63;;;;;;;;;;5036596;28;20480;-77
2023/04/16 03:03:12;;;;;;;7.70;5.90;;;;;;;;;;5036561;28;20791;-77
2023/04/16 03:05:40;;;;;;;6.90;4.67;;;7.00;99.90;;;;;;5035163;28;20452;-77
2023/04/16 03:08:08;;;;;;;7.23;5.27;;;;;;;;;;5036440;28;20459;-77
2023/04/16 03:10:35;;;;;;;6.57;4.97;;;;;;;;;;5036340;28;20493;-78
2023/04/16 03:13:02;;;;;;;6.13;2.90;;;;;;;;;;5036195;28;20931;-78
2023/04/16 03:15:29;;;;;;;6.30;4.60;;;;;;;;;;5036349;28;20447;-78
2023/04/16 03:17:56;;;;;;;10.23;6.80;;;;;;;;;;5036215;28;20521;-78
2023/04/16 03:20:24;;;;;;;7.30;4.50;;;;;;;;;;5034940;28;20451;-76
2023/04/16 03:22:52;;;;;;;9.53;5.83;;;6.90;99.90;;;;;;5036175;28;20471;-78
2023/04/16 03:25:19;;;;;;;6.57;4.10;;;;;;;;;;5036106;28;20447;-76
2023/04/16 03:27:46;;;;;;;9.60;6.17;;;;;;;;;;5035819;28;20486;-75
2023/04/16 03:30:13;;;;;;;7.70;5.87;;;6.80;99.90;;;;;;5035889;28;20474;-75
2023/04/16 03:32:41;;;;;;;8.40;6.17;;;;;;;;;;5036037;28;20459;-76
2023/04/16 03:35:09;;;;;;;11.00;7.40;;;7.00;99.90;;;;;;5034780;28;20458;-75
2023/04/16 03:37:36;;;;;;;7.43;5.40;;;;;;;;;;5035931;28;20451;-76
2023/04/16 03:40:06;;;;;;;11.13;6.40;;;6.90;99.90;;;;;;5035728;28;20513;-76
2023/04/16 03:42:33;;;;;;;8.90;6.17;;;;;;;;;;5035787;28;20458;-76
2023/04/16 03:45:00;;;;;;;10.10;6.37;;;;;;;;;;5035797;28;20505;-76
2023/04/16 03:47:27;;;;;;;8.27;4.87;;;;;;;;;;5035670;28;20510;-77
2023/04/16 03:49:54;;;;;;;10.90;5.40;;;;;;;;;;5034437;28;20842;-76
2023/04/16 03:52:21;;;;;;;8.43;5.70;;;;;;;;;;5035467;28;20494;-77
2023/04/16 03:54:48;;;;;;;10.43;6.57;;;;;;;;;;5035457;28;20860;-77
2023/04/16 03:57:17;;;;;;;7.97;5.37;;;6.90;99.90;;;;;;5035416;28;20451;-76
2023/04/16 03:59:44;;;;;;;8.57;5.07;;;;;;;;;;5035412;28;20448;-75
2023/04/16 04:02:11;;;;;;;6.10;3.80;;;;;;;;;;5034989;28;20455;-76
2023/04/16 04:04:38;;;;;;;10.77;6.17;;;;;;;;;;5034116;28;20454;-77
2023/04/16 04:07:05;;;;;;;9.80;6.60;;;;;;;;;;5035183;28;20446;-75
2023/04/16 04:09:32;;;;;;;8.40;6.30;;;;;;;;;;5035316;28;20448;-76
2023/04/16 04:12:00;;;;;;;2.90;2.47;;;;;;;;;;5035217;28;21062;-76
2023/04/16 04:14:28;;;;;;;8.80;5.97;;;6.80;99.90;;;;;;5035258;28;20474;-78
2023/04/16 04:16:55;;;;;;;10.83;6.17;;;;;;;;;;5035174;28;20443;-75
2023/04/16 04:19:22;;;;;;;9.30;6.00;;;;;;;;;;5033838;28;20447;-76
2023/04/16 04:21:49;;;;;;;10.83;7.40;;;;;;;;;;5034963;28;20455;-76
2023/04/16 04:24:16;;;;;;;8.80;5.97;;;;;;;;;;5034981;28;20448;-77
2023/04/16 04:26:43;;;;;;;6.47;4.30;;;;;;;;;;5034879;28;20464;-76
2023/04/16 04:29:10;;;;;;;7.57;5.50;;;;;;;;;;5039630;28;20471;-76
2023/04/16 04:31:38;;;;;;;9.07;6.23;;;6.80;99.90;;;;;;5034803;28;20494;-76
2023/04/16 04:34:05;;;;;;;8.43;5.00;;;;;;;;;;5034928;28;20447;-77
2023/04/16 04:36:32;;;;;;;8.43;5.30;;;;;;;;;;5033567;28;20451;-76
2023/04/16 04:38:59;;;;;;;6.13;4.10;;;;;;;;;;5034783;28;20459;-76
2023/04/16 04:41:26;;;;;;;8.27;5.80;;;;;;;;;;5034637;28;20448;-76
2023/04/16 04:43:53;;;;;;;9.20;5.30;;;;;;;;;;5034588;28;20447;-77
2023/04/16 04:46:21;;;;;;;7.43;5.40;;;;;;;;;;5034618;28;20458;-76
2023/04/16 04:48:49;;;;;;;8.03;5.53;;;6.90;99.90;;;;;;5034457;28;20455;-76
2023/04/16 04:51:16;;;;;;;8.90;5.67;;;;;;;;;;5033194;28;20483;-76
2023/04/16 04:53:43;;;;;;;9.00;6.00;;;;;;;;;;5034383;28;20448;-75
2023/04/16 04:56:10;;;;;;;6.40;4.90;;;;;;;;;;5034347;28;20447;-75
2023/04/16 04:58:37;;;;;;;8.13;5.80;;;;;;;;;;5034393;28;20443;-75
2023/04/16 05:01:04;;;;;;;8.70;5.67;;;;;;;;;;5034300;28;20451;-77
2023/04/16 05:03:32;;;;;;;8.23;6.07;;;;;;;;;;5034153;28;20517;-75
2023/04/16 05:06:00;;;;;;;10.30;6.10;;;;;;;;;;5032965;28;20459;-74
2023/04/16 05:08:27;;;;;;;9.00;6.10;;;;;;;;;;5034191;28;20444;-78
2023/04/16 05:10:54;;;;;;;12.60;6.90;;;;;;;;;;5034045;28;20480;-75
2023/04/16 05:13:21;;;;;;;9.30;6.30;;;;;;;;;;5033286;28;20447;-76
2023/04/16 05:15:48;;;;;;;9.40;5.63;;;;;;;;;;5033976;28;20931;-76
2023/04/16 05:18:15;;;;;;;7.80;5.03;;;;;;;;;;5033899;28;20462;-76
2023/04/16 05:20:42;;;;;;;9.23;6.03;;;;;;;;;;5032806;28;20452;-76
2023/04/16 05:23:10;;;;;;;7.57;5.43;;;6.90;99.90;;;;;;5033918;28;20454;-76
2023/04/16 05:25:37;;;;;;;6.90;4.90;;;;;;;;;;5033865;28;20480;-77
2023/04/16 05:28:05;;;;;;;9.37;5.90;;;;;;;;;;5033557;28;20479;-76
2023/04/16 05:30:32;;;;;;;6.93;4.90;;;;;;;;;;5033570;28;20455;-75
2023/04/16 05:32:59;;;;;;;11.73;5.97;;;;;;;;;;5033628;28;20491;-75
2023/04/16 05:35:26;;;;;;;17.50;9.20;;;;;;;;;;5032342;28;20470;-77
2023/04/16 05:37:53;;;;;;;14.77;8.80;;;;;;;;;;5033582;28;20462;-76
2023/04/16 05:40:21;;;;;;;15.10;9.60;;;6.80;99.90;;;;;;5033566;28;20837;-76
2023/04/16 05:42:49;;;;;;;15.80;9.10;;;;;;;;;;5033524;28;20456;-76
2023/04/16 05:45:16;;;;;;;20.03;10.83;;;;;;;;;;5033526;28;20447;-76
2023/04/16 05:47:43;;;;;;;14.23;9.67;;;;;;;;;;5033511;28;20806;-77
2023/04/16 05:50:10;;;;;;;21.40;11.10;;;7.10;99.90;;;;;;5032229;28;20486;-76
2023/04/16 05:52:37;;;;;;;16.00;10.13;;;;;;;;;;5033303;28;20495;-76
2023/04/16 05:55:05;;;;;;;18.07;10.40;;;;;;;;;;5033341;28;20447;-75
2023/04/16 05:57:33;;;;;;;19.57;11.93;;;6.80;99.90;;;;;;5033253;28;20455;-76
2023/04/16 06:00:00;;;;;;;17.27;10.20;;;;;;;;;;5033213;28;20450;-79
2023/04/16 06:02:29;;;;;;;27.13;13.50;;;;;;;;;;5033183;28;20939;-80
2023/04/16 06:04:56;;;;;;;18.57;10.70;;;;;;;;;;5031908;28;20459;-78
2023/04/16 06:07:23;;;;;;;22.57;12.43;;;;;;;;;;5033027;28;20858;-85
2023/04/16 06:09:50;;;;;;;24.73;13.90;;;;;;;;;;5033163;28;20813;-79
2023/04/16 06:12:17;;;;;;;26.00;13.83;;;;;;;;;;5032865;28;20491;-79
2023/04/16 06:14:45;;;;;;;25.27;13.90;;;6.80;99.90;;;;;;5033043;28;20793;-77
2023/04/16 06:17:12;;;;;;;26.17;12.40;;;;;;;;;;5032946;28;20451;-78
2023/04/16 06:19:39;;;;;;;30.00;14.67;;;;;;;;;;5031829;28;20462;-78
2023/04/16 06:22:06;;;;;;;20.00;12.50;;;;;;;;;;5032933;28;20447;-80
2023/04/16 06:24:34;;;;;;;19.53;11.50;;;;;;;;;;5032779;28;20451;-77
2023/04/16 06:27:01;;;;;;;19.60;10.33;;;;;;;;;;5032640;28;20463;-78
2023/04/16 06:29:28;;;;;;;25.57;16.17;;;;;;;;;;5032458;28;20521;-79
2023/04/16 06:31:56;;;;;;;24.20;15.07;;;6.90;99.90;;;;;;5032658;28;20491;-78
2023/04/16 06:34:24;;;;;;;21.20;12.60;;;;;;;;;;5031427;28;20454;-78
2023/04/16 06:36:51;;;;;;;27.83;16.63;;;;;;;;;;5032817;28;20443;-74
2023/04/16 06:39:20;;;;;;;26.30;14.13;;;;;;;;;;5032608;28;20451;-76
2023/04/16 06:41:47;;;;;;;24.63;14.60;;;;;;;;;;5032631;28;20533;-81
2023/04/16 06:44:14;;;;;;;29.00;16.40;;;;;;;;;;5032708;28;20446;-81
2023/04/16 06:46:41;;;;;;;28.50;15.13;;;;;;;;;;5032579;28;20458;-79
2023/04/16 06:49:09;;;;;;;26.43;16.03;;;6.90;99.90;;;;;;5032666;28;20443;-78
2023/04/16 06:51:36;;;;;;;24.23;13.90;;;;;;;;;;5031351;28;20490;-80
2023/04/16 06:54:04;;;;;;;19.57;10.97;;;;;;;;;;5032431;28;20462;-80
2023/04/16 06:56:32;;;;;;;26.33;15.17;;;;;;;;;;5032788;28;20455;-86
2023/04/16 06:58:59;;;;;;;28.90;16.10;;;;;;;;;;5038209;28;20455;-89
2023/04/16 07:01:27;;;;;;;26.70;16.33;;;;;;;;;;5032908;28;20462;-88
2023/04/16 07:03:54;;;;;;;29.73;17.10;;;6.90;99.90;;;;;;5038213;28;20451;-88
2023/04/16 07:06:23;;;;;;;31.10;17.27;;;;;;;;;;5013726;28;20452;-88
2023/04/16 07:08:50;;;;;;;28.50;17.03;;;;;;;;;;5032802;28;20435;-85
2023/04/16 07:11:17;;;;;;;32.90;17.87;;;;;;;;;;5032598;28;20447;-85
2023/04/16 07:13:45;;;;;;;27.57;14.97;;;;;;;;;;5032431;28;20490;-88
2023/04/16 07:16:12;;;;;;;27.40;16.00;;;;;;;;;;5032677;28;20443;-83
2023/04/16 07:18:39;;;;;;;28.77;16.40;;;;;;;;;;5032690;28;20458;-86
2023/04/16 07:21:06;;;;;;;26.30;15.97;;;;;;;;;;5031295;28;20451;-83
2023/04/16 07:23:34;;;;;;;27.40;15.10;;;7.00;99.90;;;;;;5032591;28;20486;-87
2023/04/16 07:26:01;;;;;;;28.53;15.93;;;;;;;;;;5032331;28;20471;-81
2023/04/16 07:28:29;;;;;;;19.80;11.57;;;;;;;;;;5032070;28;20487;-81
2023/04/16 07:30:56;;;;;;;32.60;18.33;;;;;;;;;;5032155;28;20450;-81
2023/04/16 07:33:23;;;;;;;20.17;12.60;;;;;;;;;;5032253;28;20495;-82
2023/04/16 07:35:50;;;;;;;22.47;12.13;;;;;;;;;;5032210;28;20450;-82
2023/04/16 07:38:17;;;;;;;27.53;16.00;;;;;;;;;;5035757;28;20487;-85
2023/04/16 07:40:45;;;;;;;25.40;14.97;;;7.00;99.90;;;;;;5035764;28;20447;-82
2023/04/16 07:43:15;;;;;;;29.03;15.00;;;7.10;99.90;;;;;;5035647;28;20458;-84
2023/04/16 07:45:42;;;;;;;20.57;12.73;;;;;;;;;;5035395;28;20506;-82
2023/04/16 07:48:09;;;;;;;29.47;16.60;;;;;;;;;;5035613;28;20454;-82
2023/04/16 07:50:36;;;;;;;24.53;14.73;;;;;;;;;;5033974;28;20442;-78
2023/04/16 07:53:06;;;;;;;20.90;13.83;;;;;;;;;;5035320;28;21017;-77
2023/04/16 07:55:33;;;;;;;28.17;15.60;;;;;;;;;;5035463;28;21034;-79
2023/04/16 07:58:02;;;;;;;25.80;15.30;;;7.10;99.90;;;;;;5035339;28;20947;-83
2023/04/16 08:00:29;;;;;;;26.00;13.17;;;;;;;;;;5035527;28;20447;-79
2023/04/16 08:02:56;;;;;;;25.30;14.67;;;;;;;;;;5035079;28;20451;-83
2023/04/16 08:05:23;;;;;;;25.43;14.83;;;;;;;;;;5033944;28;20462;-81
2023/04/16 08:07:50;;;;;;;20.53;12.40;;;;;;;;;;5035125;28;20459;-80
2023/04/16 08:10:17;;;;;;;24.73;15.50;;;;;;;;;;5035144;28;20451;-84
2023/04/16 08:12:44;;;;;;;25.33;13.77;;;;;;;;;;5035169;28;20495;-80
2023/04/16 08:15:13;;;;;;;23.87;12.97;;;7.20;99.90;;;;;;5034973;28;20454;-81
2023/04/16 08:17:40;;;;;;;23.77;14.07;;;;;;;;;;5034592;28;20466;-83
2023/04/16 08:20:07;;;;;;;27.13;15.40;;;7.20;99.90;;;;;;5033829;28;20458;-84
2023/04/16 08:22:35;;;;;;;24.83;15.43;;;;;;;;;;5034995;28;20450;-83
2023/04/16 08:25:02;;;;;;;21.30;13.17;;;;;;;;;;5034838;28;20521;-84
2023/04/16 08:27:29;;;;;;;27.00;13.57;;;;;;;;;;5034809;28;20468;-82
2023/04/16 08:29:56;;;;;;;25.20;14.70;;;;;;;;;;5038721;28;20439;-84
2023/04/16 08:32:25;;;;;;;22.70;12.00;;;7.30;99.90;;;;;;5034834;28;20823;-79
2023/04/16 08:34:53;;;;;;;20.13;10.97;;;;;;;;;;5033264;28;20452;-83
2023/04/16 08:37:20;;;;;;;21.60;13.10;;;;;;;;;;5034644;28;20452;-81
2023/04/16 08:39:47;;;;;;;22.87;14.10;;;;;;;;;;5034668;28;20451;-87
2023/04/16 08:42:23;;;;;;;22.70;15.00;;;7.20;99.90;;;;;;5034595;28;20447;-82
2023/04/16 08:44:55;;;;;;;22.10;15.17;;;7.20;99.90;;;;;;5034457;28;20462;-80
2023/04/16 08:47:23;;;;;;;21.53;13.67;;;;;;;;;;5034493;28;20815;-84
2023/04/16 08:49:54;;;;;;;20.57;13.00;;;7.20;99.90;;;;;;5033380;28;20452;-87
2023/04/16 08:52:23;;;;;;;19.33;12.47;;;7.20;99.90;;;;;;5034887;28;20478;-88
2023/04/16 08:54:59;;;;;;;21.10;12.53;;;7.30;99.90;;;;;;5034655;28;20451;-89
2023/04/16 08:57:31;;;;;;;22.23;13.17;;;7.30;99.90;;;;;;5034705;28;20447;-88
2023/04/16 09:00:01;;;;;;;22.57;13.33;;;7.30;99.90;;;;;;5016619;28;20443;-86
2023/04/16 09:02:28;;;;;;;19.80;12.27;;;;;;;;;;5034528;28;20506;-84
2023/04/16 09:04:59;;;;;;;21.43;12.17;;;7.40;99.90;;;;;;5033220;28;20942;-85
2023/04/16 09:07:29;;;;;;;21.37;13.10;;;7.50;99.90;;;;;;5034081;28;20454;-83
2023/04/16 09:09:56;;;;;;;21.67;13.07;;;;;;;;;;5033760;28;20467;-81
2023/04/16 09:12:24;;;;;;;23.43;12.03;;;;;;;;;;5034110;28;20495;-83
2023/04/16 09:14:51;;;;;;;18.97;12.50;;;;;;;;;;5034020;28;20443;-85
2023/04/16 09:17:19;;;;;;;8.30;6.03;;;;;;;;;;5034384;28;20458;-83
2023/04/16 09:19:46;;;;;;;17.67;12.17;;;;;;;;;;5033066;28;20451;-82
2023/04/16 09:22:16;;;;;;;19.17;12.87;;;7.70;99.90;;;;;;5039373;28;20451;-83
2023/04/16 09:24:43;;;;;;;19.40;11.17;;;;;;;;;;5033927;28;20467;-85
2023/04/16 09:27:10;;;;;;;20.40;12.33;;;;;;;;;;5033776;28;20447;-84
2023/04/16 09:29:39;;;;;;;13.97;9.00;;;7.80;99.90;;;;;;5033998;28;20474;-84
2023/04/16 09:32:07;;;;;;;17.33;11.20;;;7.70;99.90;;;;;;5034043;28;20854;-82
2023/04/16 09:34:34;;;;;;;19.33;12.07;;;;;;;;;;5043364;28;20452;-80
2023/04/16 09:37:18;;;;;;;18.43;11.43;;;7.70;99.90;;;;;;5053921;28;20466;-81
2023/04/16 09:39:45;;;;;;;21.73;11.67;;;;;;;;;;5034356;28;20811;-82
2023/04/16 09:42:12;;;;;;;18.67;11.20;;;;;;;;;;5034323;28;20970;-85
2023/04/16 09:44:39;;;;;;;18.40;11.57;;;;;;;;;;5033930;28;20459;-80
2023/04/16 09:47:07;;;;;;;18.47;10.37;;;;;;;;;;5033724;28;20447;-84
2023/04/16 09:49:35;;;;;;;21.27;12.53;;;;;;;;;;5032506;28;21105;-84
2023/04/16 09:52:02;;;;;;;16.50;10.13;;;;;;;;;;5033596;28;20483;-83
2023/04/16 09:54:30;;;;;;;20.20;11.00;;;7.80;99.90;;;;;;5033421;28;20452;-87
2023/04/16 09:56:57;;;;;;;22.63;12.30;;;;;;;;;;5033480;28;20439;-86
2023/04/16 09:59:25;;;;;;;22.70;12.43;;;;;;;;;;5033614;28;20447;-84
2023/04/16 10:01:52;;;;;;;17.33;12.23;;;;;;;;;;5033509;28;20521;-85
2023/04/16 10:04:21;;;;;;;35.77;13.30;;;;;;;;;;5032502;28;20517;-79
2023/04/16 10:07:04;;;;;;;13.50;8.53;;;7.90;99.90;;;;;;5033305;28;20447;-81
2023/04/16 10:09:33;;;;;;;24.00;12.33;;;;;;;;;;5033360;28;20471;-85
2023/04/16 10:12:01;;;;;;;21.00;13.87;;;;;;;;;;5033312;28;20446;-84
2023/04/16 10:14:28;;;;;;;21.80;13.10;;;;;;;;;;5033121;28;20498;-87
2023/04/16 10:16:55;;;;;;;19.40;12.27;;;7.70;99.90;;;;;;5033152;28;20443;-83
2023/04/16 10:19:23;;;;;;;21.00;12.80;;;;;;;;;;5032028;28;20820;-85
2023/04/16 10:21:50;;;;;;;20.10;12.70;;;;;;;;;;5033108;28;20447;-83
2023/04/16 10:24:18;;;;;;;22.40;12.70;;;7.80;99.90;;;;;;5033355;28;20993;-88
2023/04/16 10:26:49;;;;;;;21.30;13.40;;;7.70;99.90;;;;;;5014658;28;20450;-85
2023/04/16 10:29:16;;;;;;;25.00;12.97;;;;;;;;;;5034236;28;20475;-86
2023/04/16 10:31:44;;;;;;;21.93;12.13;;;;;;;;;;5033551;28;20463;-86
2023/04/16 10:34:11;;;;;;;19.57;11.10;;;;;;;;;;5034371;28;20491;-84
2023/04/16 10:36:38;;;;;;;16.50;10.87;;;;;;;;;;5032357;28;20451;-87
2023/04/16 10:39:10;;;;;;;18.27;11.40;;;7.80;99.90;;;;;;5033783;28;20448;-85
2023/04/16 10:41:37;;;;;;;15.40;10.50;;;7.80;99.90;;;;;;5033559;28;20832;-86
2023/04/16 10:44:08;;;;;;;20.93;11.50;;;7.70;99.90;;;;;;5032814;28;20443;-84
2023/04/16 10:46:38;;;;;;;18.63;11.37;;;7.80;99.90;;;;;;5033639;28;20462;-85
2023/04/16 10:49:13;;;;;;;20.63;12.23;;;7.80;99.90;;;;;;5032896;28;20497;-87
2023/04/16 10:51:41;;;;;;;17.13;8.77;;;;;;;;;;5032240;28;20997;-82
2023/04/16 10:54:21;;;;;;;20.93;10.87;;;7.90;99.90;;;;;;5033039;28;20498;-91
2023/04/16 10:56:48;;;;;;;19.57;12.33;;;;;;;;;;5038478;28;20450;-94
2023/04/16 10:59:19;;;;;;;17.10;9.80;;;8.00;99.90;;;;;;5045818;28;20451;-83
2023/04/16 11:01:47;;;;;;;22.17;10.87;;;8.00;99.90;;;;;;5036243;28;20451;-86
2023/04/16 11:04:28;;;;;;;19.97;11.20;;;8.00;99.90;;;;;;5038024;28;20446;-88
2023/04/16 11:07:15;;;;;;;18.23;10.93;;;8.10;99.90;;;;;;5044588;28;20439;-86
2023/04/16 11:10:01;;;;;;;20.10;12.10;;;8.00;99.90;;;;;;5037399;28;20538;-94
2023/04/16 11:12:34;;;;;;;16.53;10.60;;;8.10;99.90;;;;;;5043654;28;20438;-93
2023/04/16 11:15:04;;;;;;;14.50;9.60;;;8.20;99.90;;;;;;5043517;28;20950;-81
2023/04/16 11:17:33;;;;;;;16.33;9.20;;;8.10;99.90;;;;;;5038572;28;20447;-93
2023/04/16 11:20:00;;;;;;;13.80;8.60;;;;;;;;;;4984886;28;20456;-92
2023/04/16 11:22:28;;;;;;;15.13;8.83;;;8.20;99.90;;;;;;5019853;28;20448;-87
2023/04/16 11:24:56;;;;;;;13.80;8.70;;;;;;;;;;5018869;28;20464;-87
2023/04/16 11:27:23;;;;;;;19.43;10.40;;;;;;;;;;5020353;28;20437;-82
2023/04/16 11:29:57;;;;;;;15.07;9.17;;;8.20;99.90;;;;;;5018197;28;20457;-87
2023/04/16 11:32:26;;;;;;;12.60;7.93;;;;;;;;;;5018762;28;21143;-89
2023/04/16 11:34:53;;;;;;;12.67;9.13;;;;;;;;;;5017019;28;20494;-85
2023/04/16 11:37:21;;;;;;;11.20;6.40;;;8.20;99.90;;;;;;5017124;28;21014;-84
2023/04/16 11:39:52;;;;;;;10.03;6.40;;;8.20;99.90;;;;;;5017411;28;20530;-78
2023/04/16 11:42:21;;;;;;;9.80;6.20;;;8.20;99.90;;;;;;5016451;28;20452;-82
2023/04/16 11:44:51;;;;;;;11.23;6.33;;;8.30;99.90;;;;;;5016770;28;20511;-88
2023/04/16 11:47:18;;;;;;;7.80;6.27;;;;;;;;;;5016743;28;20455;-84
2023/04/16 11:49:47;;;;;;;8.70;6.10;;;;;;;;;;5016292;28;20455;-82
2023/04/16 11:52:14;;;;;;;9.10;5.80;;;;;;;;;;5016782;28;20444;-91
2023/04/16 11:54:41;;;;;;;9.67;5.77;;;;;;;;;;5017112;28;20499;-79
2023/04/16 11:57:08;;;;;;;10.20;5.67;;;;;;;;;;5023329;28;20954;-82
2023/04/16 11:59:35;;;;;;;7.63;5.97;;;;;;;;;;5016608;28;20460;-77
2023/04/16 12:02:02;;;;;;;8.53;5.40;;;;;;;;;;5018817;28;20453;-92
2023/04/16 12:04:30;;;;;;;6.40;4.77;;;;;;;;;;5020396;28;20452;-79
2023/04/16 12:07:13;;;;;;;6.80;4.70;;;8.40;99.90;;;;;;5022699;28;20455;-77
2023/04/16 12:09:41;;;;;;;6.87;4.43;;;8.50;99.90;;;;;;5034377;28;20930;-78
2023/04/16 12:12:26;;;;;;;5.50;3.50;;;8.60;99.90;;;;;;5015184;28;20452;-82
2023/04/16 12:14:55;;;;;;;6.90;4.40;;;;;;;;;;5015767;28;20492;-81
2023/04/16 12:17:22;;;;;;;5.23;3.63;;;;;;;;;;5015788;28;20807;-86
2023/04/16 12:19:50;;;;;;;4.23;3.30;;;8.50;99.90;;;;;;5014616;28;20455;-85
2023/04/16 12:22:26;;;;;;;4.97;3.57;;;8.50;99.90;;;;;;5015534;28;20456;-83
2023/04/16 12:24:56;;;;;;;4.23;3.07;;;8.50;99.90;;;;;;5017192;28;20472;-89
2023/04/16 12:27:27;;;;;;;4.07;3.20;;;;;;;;;;5019326;28;20448;-83
2023/04/16 12:30:04;;;;;;;8.10;3.73;;;8.60;99.90;;;;;;5022318;28;20444;-91
2023/04/16 12:32:31;;;;;;;4.40;3.17;;;;;;;;;;5018453;28;20448;-87
2023/04/16 12:34:58;;;;;;;7.27;4.37;;;;;;;;;;5015954;28;20503;-91
2023/04/16 12:37:26;;;;;;;7.40;4.93;;;8.40;99.90;;;;;;5018647;28;20799;-79
2023/04/16 12:39:53;;;;;;;13.67;7.40;;;;;;;;;;5019837;28;20475;-83
2023/04/16 12:42:21;;;;;;;16.50;6.60;;;;;;;;;;5019396;28;20444;-95
2023/04/16 12:44:48;;;;;;;9.30;5.37;;;;;;;;;;5021133;28;20452;-78
2023/04/16 12:47:15;;;;;;;5.60;4.07;;;;;;;;;;5020116;28;20459;-90
2023/04/16 12:49:43;;;;;;;3.87;2.70;;;;;;;;;;5015963;28;20991;-81
2023/04/16 12:52:10;;;;;;;8.20;5.20;;;;;;;;;;5015880;28;20942;-86
2023/04/16 12:54:38;;;;;;;5.60;3.23;;;;;;;;;;5015149;28;20499;-88
2023/04/16 12:57:06;;;;;;;7.30;4.60;;;;;;;;;;5015643;28;20813;-88
2023/04/16 12:59:33;;;;;;;7.40;5.23;;;;;;;;;;5015542;28;20815;-87
2023/04/16 13:02:01;;;;;;;6.67;4.40;;;8.40;99.90;;;;;;5015913;28;20456;-91
2023/04/16 13:04:28;;;;;;;5.20;4.20;;;;;;;;;;5015804;28;20459;-90
2023/04/16 13:06:55;;;;;;;6.17;4.40;;;;;;;;;;5021417;28;20463;-82
2023/04/16 13:09:22;;;;;;;5.60;3.80;;;;;;;;;;5015230;28;20479;-82
2023/04/16 13:11:50;;;;;;;4.23;3.23;;;;;;;;;;5014539;28;20508;-82
2023/04/16 13:14:17;;;;;;;5.47;4.30;;;;;;;;;;5014687;28;20492;-84
2023/04/16 13:16:44;;;;;;;4.40;3.30;;;;;;;;;;5014631;28;20452;-88
2023/04/16 13:19:12;;;;;;;4.10;3.40;;;;;;;;;;5015016;28;20964;-83
2023/04/16 13:21:39;;;;;;;6.17;4.43;;;;;;;;;;5017565;28;20456;-83
2023/04/16 13:24:06;;;;;;;5.07;3.87;;;;;;;;;;5018214;28;20468;-84
2023/04/16 13:26:33;;;;;;;5.17;3.40;;;;;;;;;;5014255;28;20457;-84
2023/04/16 13:29:02;;;;;;;4.57;3.60;;;;;;;;;;5019348;28;20480;-83
2023/04/16 13:31:29;;;;;;;6.07;4.40;;;;;;;;;;5014299;28;20448;-84
2023/04/16 13:33:56;;;;;;;4.83;3.47;;;;;;;;;;5013467;28;20476;-85
2023/04/16 13:36:23;;;;;;;4.77;3.47;;;;;;;;;;5013103;28;20452;-81
2023/04/16 13:38:50;;;;;;;5.10;3.63;;;;;;;;;;5014267;28;20460;-80
2023/04/16 13:41:17;;;;;;;4.10;3.47;;;;;;;;;;5013956;28;20440;-80
2023/04/16 13:43:44;;;;;;;6.47;4.50;;;;;;;;;;5013901;28;20463;-85
2023/04/16 13:46:13;;;;;;;5.03;3.63;;;8.40;99.90;;;;;;5013924;28;20452;-82
2023/04/16 13:48:40;;;;;;;8.63;5.53;;;;;;;;;;5014095;28;20782;-84
2023/04/16 13:51:07;;;;;;;7.87;5.13;;;;;;;;;;5012873;28;20452;-82
2023/04/16 13:53:34;;;;;;;8.00;4.80;;;;;;;;;;5013840;28;20905;-82
2023/04/16 13:56:02;;;;;;;6.67;5.00;;;;;;;;;;5019197;28;20498;-82
2023/04/16 13:58:29;;;;;;;7.30;5.07;;;;;;;;;;5013679;28;20494;-85
2023/04/16 14:00:56;;;;;;;6.63;4.47;;;;;;;;;;5014087;28;20444;-81
2023/04/16 14:03:25;;;;;;;5.57;3.97;;;8.20;99.90;;;;;;5013817;28;20455;-84
2023/04/16 14:05:52;;;;;;;10.73;6.10;;;;;;;;;;5024956;28;20460;-82
2023/04/16 14:08:21;;;;;;;8.17;5.43;;;;;;;;;;5032950;28;20448;-81